Latest Weather Observations for Mount Nowa Nowa

IDV60801

Issued at 7:05 pm EDT Wednesday 22 October 2014 (issued every 30 minutes, with the page automatically refreshed every 10 minutes)

About weather observations | Map of weather stations | Latest weather observations for VIC | Other Formats
Station Details ID: 084144 Name: MOUNT NOWA NOWA Lat: -37.69 Lon: 148.09 Height: 350.0 m
Data from the previous 72 hours. | See also: Recent months at Mount Nowa Nowa
Date/Time
EDT
Temp
°C
App
Temp
°C
Dew
Point
Rel
Hum
%
Delta-T
°C
Wind Press
QNH
hPa
Press
MSL
hPa
Rain
since 9 am
mm
Dir
 
Spd
km/h
Gust
km/h
Spd
kts
Gust
kts
22/07:00pm 21.6 20.8 11.0 51 5.9 E 6 11 3 6 - - 0.0
22/06:30pm 23.2 22.6 11.6 48 6.6 E 6 13 3 7 - - 0.0
22/06:00pm 24.4 24.2 11.7 45 7.3 ESE 4 7 2 4 - - 0.0
22/05:30pm 24.9 24.9 12.5 46 7.2 E 4 11 2 6 - - 0.0
22/05:00pm 25.5 25.5 12.4 44 7.7 ESE 4 9 2 5 - - 0.0
22/04:30pm 26.2 26.6 12.6 43 8.0 ESE 2 9 1 5 - - 0.0
22/04:00pm 26.5 26.9 12.5 41 8.2 SE 2 9 1 5 - - 0.0
22/03:30pm 26.9 27.7 13.6 44 8.0 E 2 9 1 5 - - 0.0
22/03:00pm 26.3 26.0 12.7 43 8.0 SSE 6 11 3 6 - - 0.0
22/02:30pm 26.3 25.7 12.4 42 8.2 SSE 7 17 4 9 - - 0.0
22/02:00pm 27.2 26.5 10.0 34 9.7 SSW 4 11 2 6 - - 0.0
22/01:30pm 27.0 26.2 9.8 34 9.7 W 4 15 2 8 - - 0.0
22/01:00pm 26.8 26.1 11.3 38 9.0 WNW 6 15 3 8 - - 0.0
22/12:30pm 26.1 25.7 11.1 39 8.6 NW 4 17 2 9 - - 0.0
22/12:00pm 25.0 24.7 12.6 46 7.3 NW 6 13 3 7 - - 0.0
22/11:30am 24.3 24.0 12.6 48 6.8 WNW 6 13 3 7 - - 0.0
22/11:00am 22.7 22.3 12.9 54 5.7 NW 7 15 4 8 - - 0.0
22/10:30am 21.3 20.7 13.5 61 4.6 NNW 9 15 5 8 - - 0.0
22/10:00am 19.7 18.8 12.7 64 4.0 NNW 9 17 5 9 - - 0.0
22/09:30am 18.4 16.9 11.9 66 3.6 NNW 11 20 6 11 - - 0.0
22/09:00am 17.1 14.6 11.2 68 3.2 NNW 15 22 8 12 - - 0.0
22/08:30am 16.4 14.1 10.5 68 3.2 NNW 13 22 7 12 - - 0.0
22/08:00am 15.7 13.0 10.2 70 2.9 NNW 15 24 8 13 - - 0.0
22/07:30am 15.2 12.0 10.0 71 2.8 NNW 17 24 9 13 - - 0.0
22/07:00am 15.2 12.0 10.0 71 2.8 N 17 24 9 13 - - 0.0
22/06:30am 14.9 11.3 9.7 71 2.7 NNW 19 28 10 15 - - 0.0
22/06:00am 15.0 11.8 9.8 71 2.7 NNW 17 26 9 14 - - 0.0
22/05:30am 15.0 11.8 9.8 71 2.7 N 17 28 9 15 - - 0.0
22/05:00am 14.5 11.2 9.7 73 2.5 N 17 26 9 14 - - 0.0
22/04:30am 14.2 11.3 9.6 74 2.4 N 15 26 8 14 - - 0.0
22/04:00am 13.7 11.6 9.6 76 2.1 N 11 19 6 10 - - 0.0
22/03:30am 13.8 12.0 9.5 75 2.2 NNE 9 17 5 9 - - 0.0
22/03:00am 14.2 12.8 9.6 74 2.4 N 7 13 4 7 - - 0.0
22/02:30am 14.5 13.3 10.3 76 2.2 N 7 11 4 6 - - 0.0
22/02:00am 14.4 13.3 10.6 78 2.0 N 7 9 4 5 - - 0.0
22/01:30am 14.9 14.3 10.5 75 2.4 N 4 7 2 4 - - 0.0
22/01:00am 15.3 14.7 10.3 72 2.7 NNW 4 9 2 5 - - 0.0
22/12:30am 15.1 14.6 10.7 75 2.4 NW 4 7 2 4 - - 0.0
22/12:00am 14.6 14.2 11.0 79 1.9 WNW 4 4 2 2 - - 0.0
 
Date/Time
EDT
Temp
°C
App
Temp
°C
Dew
Point
Rel
Hum
%
Delta-T
°C
Wind Press
QNH
hPa
Press
MSL
hPa
Rain
since 9 am
mm
Dir
 
Spd
km/h
Gust
km/h
Spd
kts
Gust
kts
21/11:30pm 15.1 14.4 9.9 71 2.8 WNW 4 7 2 4 - - 0.0
21/11:00pm 15.4 14.6 9.7 69 3.0 W 4 7 2 4 - - 0.0
21/10:30pm 15.4 14.7 10.0 70 2.9 W 4 9 2 5 - - 0.0
21/10:00pm 15.4 14.8 10.4 72 2.7 WNW 4 7 2 4 - - 0.0
21/09:30pm 15.7 15.3 11.1 74 2.5 W 4 6 2 3 - - 0.0
21/09:00pm 16.0 16.3 11.0 72 2.7 CALM 0 0 0 0 - - 0.0
21/08:30pm 16.8 17.1 10.9 68 3.2 CALM 0 0 0 0 - - 0.0
21/08:00pm 16.6 17.0 11.1 70 3.0 CALM 0 0 0 0 - - 0.0
21/07:30pm 17.4 17.8 11.4 68 3.3 CALM 0 0 0 0 - - 0.0
21/07:00pm 18.7 19.3 11.8 64 3.9 CALM 0 0 0 0 - - 0.0
21/06:30pm 19.0 18.7 11.3 61 4.3 S 4 7 2 4 - - 0.0
21/06:00pm 19.4 19.1 11.4 60 4.5 SSE 4 7 2 4 - - 0.0
21/05:30pm 20.0 19.7 11.5 58 4.8 SSE 4 7 2 4 - - 0.0
21/05:00pm 20.2 19.5 11.4 57 4.9 SSE 6 9 3 5 - - 0.0
21/04:30pm 20.3 19.4 11.2 56 5.1 SSE 7 11 4 6 - - 0.0
21/04:00pm 20.6 19.8 11.2 55 5.3 SSE 6 13 3 7 - - 0.0
21/03:30pm 21.2 20.5 11.5 54 5.5 SE 6 13 3 7 - - 0.0
21/03:00pm 21.4 21.1 11.4 53 5.6 ESE 4 15 2 8 - - 0.0
21/02:30pm 20.4 19.3 10.8 54 5.3 SSE 7 15 4 8 - - 0.0
21/02:00pm 21.2 20.8 11.0 52 5.7 SE 4 11 2 6 - - 0.0
21/01:30pm 20.4 20.1 11.3 56 5.1 S 4 7 2 4 - - 0.0
21/01:00pm 20.0 19.4 10.4 54 5.3 E 4 9 2 5 - - 0.0
21/12:30pm 19.2 18.3 10.7 58 4.7 ESE 6 11 3 6 - - 0.0
21/12:00pm 18.3 17.1 9.4 56 4.8 ENE 6 9 3 5 - - 0.0
21/11:30am 17.4 16.2 9.6 60 4.2 ESE 6 11 3 6 - - 0.0
21/11:00am 16.5 15.3 9.4 63 3.8 E 6 13 3 7 - - 0.0
21/10:30am 15.6 14.1 8.4 62 3.7 E 6 11 3 6 - - 0.0
21/10:00am 14.7 13.0 7.7 63 3.5 E 6 9 3 5 - - 0.0
21/09:30am 13.7 12.1 7.9 68 2.9 E 6 9 3 5 - - 0.0
21/09:00am 12.2 10.3 6.7 69 2.7 E 6 17 3 9 - - 0.0
21/08:30am 11.2 9.1 6.5 73 2.3 E 7 13 4 7 - - 0.0
21/08:00am 10.1 7.9 6.4 78 1.8 E 7 13 4 7 - - 0.0
21/07:30am 8.4 5.8 5.9 84 1.2 E 9 17 5 9 - - 0.0
21/07:00am 7.3 4.2 5.6 89 0.8 E 11 17 6 9 - - 0.0
21/06:30am 6.8 3.6 5.3 90 0.7 E 11 19 6 10 - - 0.0
21/06:00am 6.8 3.3 5.3 90 0.7 E 13 19 7 10 - - 0.0
21/05:30am 6.8 3.3 5.3 90 0.7 E 13 22 7 12 - - 0.0
21/05:00am 7.0 3.1 5.5 90 0.7 E 15 20 8 11 - - 0.0
21/04:30am 7.0 3.5 5.5 90 0.7 E 13 20 7 11 - - 0.0
21/04:00am 7.2 3.8 5.7 90 0.7 E 13 20 7 11 - - 0.0
21/03:30am 7.3 3.8 5.6 89 0.8 E 13 22 7 12 - - 0.0
21/03:00am 7.3 3.9 5.8 90 0.7 E 13 22 7 12 - - 0.0
21/02:30am 7.4 4.0 5.9 90 0.7 E 13 22 7 12 - - 0.0
21/02:00am 7.3 3.8 5.6 89 0.8 E 13 20 7 11 - - 0.0
21/01:30am 7.5 4.0 5.6 88 0.9 E 13 19 7 10 - - 0.0
21/01:00am 7.6 4.5 5.7 88 0.9 E 11 15 6 8 - - 0.0
21/12:30am 7.9 4.8 5.7 86 1.0 E 11 13 6 7 - - 0.0
21/12:00am 8.3 5.3 5.8 84 1.2 E 11 15 6 8 - - 0.0
 
Date/Time
EDT
Temp
°C
App
Temp
°C
Dew
Point
Rel
Hum
%
Delta-T
°C
Wind Press
QNH
hPa
Press
MSL
hPa
Rain
since 9 am
mm
Dir
 
Spd
km/h
Gust
km/h
Spd
kts
Gust
kts
20/11:30pm 9.0 6.0 5.9 81 1.4 E 11 17 6 9 - - 0.0
20/11:00pm 9.5 6.5 5.9 78 1.7 E 11 15 6 8 - - 0.0
20/10:30pm 9.7 6.7 5.9 77 1.8 E 11 19 6 10 - - 0.0
20/10:00pm 9.8 7.2 6.0 77 1.8 E 9 15 5 8 - - 0.0
20/09:30pm 9.7 7.4 5.9 77 1.8 E 7 13 4 7 - - 0.0
20/09:00pm 9.5 7.2 5.7 77 1.8 ESE 7 11 4 6 - - 0.0
20/08:30pm 9.9 7.6 5.9 76 1.9 E 7 11 4 6 - - 0.0
20/08:00pm 10.0 7.7 5.6 74 2.1 E 7 20 4 11 - - 0.0
20/07:30pm 10.2 7.9 5.6 73 2.2 E 7 17 4 9 - - 0.0
20/07:00pm 10.7 8.4 5.7 71 2.4 E 7 17 4 9 - - 0.0
20/06:30pm 11.6 8.9 5.7 67 2.8 E 9 28 5 15 - - 0.0
20/06:00pm 13.0 10.8 6.1 63 3.3 E 7 17 4 9 - - 0.0
20/05:30pm 13.4 11.0 7.0 65 3.2 ESE 9 22 5 12 - - 0.0
20/05:00pm 14.2 12.1 6.8 61 3.7 ESE 7 22 4 12 - - 0.0
20/04:30pm 14.5 11.7 7.1 61 3.7 ESE 11 26 6 14 - - 0.0
20/04:00pm 14.6 11.9 7.2 61 3.7 ESE 11 26 6 14 - - 0.0
20/03:30pm 15.1 12.4 7.4 60 3.9 ESE 11 26 6 14 - - 0.0
20/03:00pm 14.4 12.0 7.2 62 3.6 ESE 9 22 5 12 - - 0.0
20/02:30pm 14.7 12.8 7.5 62 3.6 E 7 19 4 10 - - 0.0
20/02:00pm 15.3 13.3 8.5 64 3.5 E 9 24 5 13 - - 0.0
20/01:30pm 14.9 13.2 8.2 64 3.4 ESE 7 17 4 9 - - 0.0
20/01:00pm 14.4 12.3 8.1 66 3.2 ESE 9 22 5 12 - - 0.0
20/12:30pm 15.6 13.9 7.6 59 4.1 E 6 11 3 6 - - 0.0
20/12:00pm 14.7 11.9 5.0 52 4.6 ENE 9 19 5 10 - - 0.0
20/11:30am 14.2 12.3 4.8 53 4.5 ESE 4 13 2 7 - - 0.0
20/11:00am 14.0 12.7 5.9 58 3.9 SW 2 4 1 2 - - 0.0
20/10:30am 11.8 9.9 4.8 62 3.3 E 4 6 2 3 - - 0.0
20/10:00am 12.6 10.9 3.8 55 4.0 SE 2 7 1 4 - - 0.0
20/09:30am 11.7 10.0 4.0 59 3.5 SE 2 7 1 4 - - 0.0
20/09:00am 12.0 10.1 4.7 61 3.4 SSE 4 9 2 5 - - 1.0
20/08:30am 10.4 8.1 5.0 69 2.5 S 6 11 3 6 - - 1.0
20/08:00am 9.4 7.9 6.7 83 1.3 SW 4 6 2 3 - - 1.0
20/07:30am 9.1 8.1 7.5 90 0.8 W 2 6 1 3 - - 1.0
20/07:00am 8.9 8.1 8.0 94 0.4 NW 2 2 1 1 - - 1.0
20/06:30am 8.9 8.4 8.0 94 0.4 CALM 0 2 0 1 - - 1.0
20/06:00am 9.0 8.6 8.1 94 0.4 CALM 0 2 0 1 - - 1.0
20/05:30am 9.1 8.1 7.5 90 0.8 W 2 4 1 2 - - 1.0
20/05:00am 9.2 7.4 7.0 86 1.1 WSW 6 13 3 7 - - 1.0
20/04:30am 9.3 7.3 7.1 86 1.1 WSW 7 15 4 8 - - 1.0
20/04:00am 9.2 7.3 7.5 89 0.8 WSW 7 15 4 8 - - 1.0
20/03:30am 9.3 7.5 8.1 92 0.6 WSW 7 17 4 9 - - 1.0
20/03:00am 9.2 7.5 8.4 95 0.4 WSW 7 15 4 8 - - 1.0
20/02:30am 9.1 7.4 8.5 96 0.3 WSW 7 15 4 8 - - 1.0
20/02:00am 9.1 6.6 8.3 95 0.4 SW 11 35 6 19 - - 0.8
20/01:30am 9.7 7.8 9.1 96 0.3 SW 9 24 5 13 - - 0.8
20/01:00am 10.4 8.7 9.8 96 0.3 SW 9 20 5 11 - - 0.4
20/12:30am 11.1 9.4 9.7 91 0.7 WSW 9 28 5 15 - - 0.0
20/12:00am 12.0 9.6 8.7 80 1.7 WSW 11 20 6 11 - - 0.0
 
Date/Time
EDT
Temp
°C
App
Temp
°C
Dew
Point
Rel
Hum
%
Delta-T
°C
Wind Press
QNH
hPa
Press
MSL
hPa
Rain
since 9 am
mm
Dir
 
Spd
km/h
Gust
km/h
Spd
kts
Gust
kts
19/11:30pm 12.3 10.5 9.5 83 1.4 WSW 9 26 5 14 - - 0.0
19/11:00pm 12.3 10.6 9.7 84 1.3 WSW 9 20 5 11 - - 0.0
19/10:30pm 12.4 10.0 10.1 86 1.2 WSW 13 30 7 16 - - 0.0
19/10:00pm 12.8 11.3 10.7 87 1.1 WSW 9 17 5 9 - - 0.0
19/09:30pm 12.7 10.8 10.6 87 1.1 WSW 11 26 6 14 - - 0.0
19/09:00pm 12.9 10.6 10.6 86 1.2 WSW 13 30 7 16 - - 0.0
19/08:30pm 13.2 11.4 10.9 86 1.2 SW 11 22 6 12 - - 0.0
19/08:00pm 13.8 10.5 11.0 83 1.5 SSW 19 32 10 17 - - 0.0
19/07:40pm 16.6 13.4 9.8 64 3.6 S 17 28 9 15 - - 0.0
19/07:30pm 21.7 19.4 7.5 40 7.5 WNW 9 19 5 10 - - 0.0

Other Formats:

Comma delimited format used in spreadsheet applications
http://www.bom.gov.au/fwo/IDV60801/IDV60801.94930.axf

JavaScript Object Notation format (JSON) in row-major order
http://www.bom.gov.au/fwo/IDV60801/IDV60801.94930.json